Station info - map view · info · telemetry · weather · raw · status · beacons · messages · bulletins · browse · moving · my account
Callsign, ship name or locator: Clear       
It is possible to search using wildcards (*?) after a prefix. Example: OH*
APRS station K3RGB-15 - show graphs
Map loading...
Comment: LISTENING 444.025
Mic-E message: Off duty
Location: 27°48.40' N 82°37.31' W - locator EL87QT53JO - show map - static map
3.6 miles East bearing 106° from Lealman, Pinellas County, Florida, United States [?]
4.3 miles Northeast bearing 55° from Saint Petersburg, Pinellas County, Florida, United States
13.9 miles Southwest bearing 226° from Tampa, Hillsborough County, Florida, United States
Last position: 2017-10-18 00:14:17 EDT (4d 5h48m ago)
2017-10-18 00:14:17 EDT local time at Lealman, United States [?]
Altitude: 30 ft
Course: 268°
Speed: 4 MPH
Device: Kenwood: TM-D700 (rig)
Last path: K3RGB-15>RWTX4P via NI4CE-14*,K4LKL-10*,WC4PEM-14*,WIDE2*,qAR,W4KBW (good)
Positions stored: 34169
Packet rate: 182 seconds between packets on average during 3816 seconds.
Stations near current position of K3RGB-15 - show more
callsign distance last heard - EDT      callsign distance last heard - EDT
N3FU-941.3 yards 1°2017-10-18 17:56:50 N3FU-140.5 miles 285°2017-10-19 17:14:34
DW92941.4 miles 325°2017-10-22 05:49:03 DW42262.3 miles 234°2017-10-22 05:56:18
CW17212.5 miles 317°2017-10-22 05:46:06 KK4MYO2.7 miles 201°2017-10-21 14:15:01
N4HYK2.7 miles 261°2017-10-11 14:42:51 EW66273.6 miles 251°2017-10-22 05:58:28
EW87303.6 miles 251°2017-10-22 05:58:21 KC9TIK3.7 miles 245°2017-10-20 09:42:25
KJ4QAL-13.8 miles 331°2017-10-22 05:48:47 W4ICY3.8 miles 331°2017-10-22 06:00:27
KJ4QAL-23.8 miles 331°2017-10-22 05:52:12 W4FOE-24.1 miles 300°2017-10-16 03:48:37
W4FOE4.2 miles 311°2017-10-22 06:02:43 EW52254.3 miles 313°2017-10-22 06:00:05
DW99334.5 miles 269°2017-10-22 05:50:24 EW45494.6 miles 266°2017-10-22 05:58:59
KJ4REA-114.7 miles 304°2017-10-14 14:56:23 DW81864.8 miles 265°2017-10-22 05:58:43
Stations which heard K3RGB-15 directly on radio –
callsign pkts first heard - EDT last heard longest (tx => rx) longest at - EDT
KG4YZY-10 1 2017-10-15 14:55:58 2017-10-15 14:55:58 EL88VM > EL88PG 33.4 miles 240° 2017-10-15 14:55:58
NI4CE-10 7 2017-10-15 13:32:42 2017-10-18 00:12:57 EL87QV > EL87VJ 41.7 miles 147° 2017-10-15 13:59:57
KD4MOJ-5 1 2017-10-15 20:40:08 2017-10-15 20:40:08 EM70QV > EM70PO 22.6 miles 204° 2017-10-15 20:40:08
KG4YZY-11 5 2017-10-15 14:15:23 2017-10-17 23:19:53 EL88SA > EL88PG 23.4 miles 318° 2017-10-15 14:15:23
KD4MOJ-7 23 2017-10-15 19:30:28 2017-10-17 19:25:43 EM80BL > EM70VO 22.4 miles 290° 2017-10-15 19:30:28
K4OZS-10 18 2017-10-15 16:22:40 2017-10-15 17:00:16 EL89VJ > EL89XC 22.6 miles 151° 2017-10-15 17:00:16
AE4S 2 2017-10-15 19:51:39 2017-10-15 19:54:41 EM70UL > EM70UL 2.2 miles 107° 2017-10-15 19:54:41
W4TKB 6 2017-10-15 14:33:49 2017-10-15 16:13:34 EL88WR > EL88VI 25.4 miles 193° 2017-10-15 16:13:34
WC4PEM-8 1 2017-10-15 14:10:20 2017-10-15 14:10:20 EL87SW > EL88XD 31.7 miles 63° 2017-10-15 14:10:20
KF4OOP-1 12 2017-10-15 22:19:38 2017-10-17 11:20:24 EM71HE > EM71EJ 20.8 miles 314° 2017-10-15 22:19:38
N4IDH-1 24 2017-10-15 22:36:36 2017-10-17 17:25:10 EM71HH > EM71GF 7.3 miles 224° 2017-10-16 21:08:50
KG4WKX-1 5 2017-10-17 21:42:32 2017-10-17 21:54:41 EL89NM > EL89NJ 7.3 miles 179° 2017-10-17 21:42:32
N4SVC-1 10 2017-10-15 17:59:44 2017-10-15 18:50:55 EM80OG > EM80MG 12.1 miles 276° 2017-10-15 17:59:44
NI4CE-14 12 2017-10-15 13:26:35 2017-10-18 00:07:30 EL88RC > EL87QV 17.0 miles 201° 2017-10-17 23:35:15
W4DFU-3 5 2017-10-15 17:02:06 2017-10-15 17:17:18 EL89UK > EL89TP 13.5 miles 340° 2017-10-15 17:02:48
W4RPT-1 21 2017-10-15 14:37:44 2017-10-15 16:20:25 EL88WT > EL88VM 20.9 miles 196° 2017-10-15 16:20:25
W0DLM-10 1 2017-10-15 14:27:46 2017-10-15 14:27:46 EL88TE > EL88TE 1.4 miles 54° 2017-10-15 14:27:46
W4DHX-3 1 2017-10-15 13:44:49 2017-10-15 13:44:49 EL87QT > EL87OV 8.9 miles 308° 2017-10-15 13:44:49
K4DKK-15 2 2017-10-17 23:22:54 2017-10-17 23:29:07 EL88RG > EL88PE 10.3 miles 234° 2017-10-17 23:22:54

Only position packets which were originated by the station are shown here. The range statistics show some extra long hops, because some digipeaters do not correctly add themselves to the digipeater path. Please check the raw packets.
About this site
This page shows real-time information collected from the Automatic Position Reporting System Internet network (APRS-IS). APRS is used by amateur (ham) radio operators to transmit real-time position information, weather data, telemetry and messages over the radio. A vehicle equipped with a GPS receiver, a VHF transmitter or HF transceiver and a small computer device called a tracker transmits it's location, speed and course in a small data packet, which is then received by a nearby iGate receiving site which forwards the packet on the Internet. Systems connected to the Internet can send information on the APRS-IS without a radio transmitter, or collect and display information transmitted anywhere in the world.
FAQ · Blog · Discussion group · Linking to aprs.fi · AIS sites · Service status · Database statistics · Advertising on aprs.fi · Technical details · API · Change log · Planned changes · Credits and thanks · Terms Of Service · iPhone/iPad APRS